METAR AND TAF INFORMATION

METAR FOR KAUS
ADDS - METARS form results

(0945 UTC 04 February 2023)
Data provider http://aviationweather.gov/metar/data/
 
METAR text: KAUS 040938Z 00000KT 3/4SM R36R/2000V2400FT BR SCT002 01/M01 A3045 RMK AO2 T00111006
Conditions at: KAUS (AUSTIN , TX, US) observed 0938 UTC 04 February 2023
Temperature: 1.1°C (34°F)
Dewpoint: -0.6°C (31°F) [RH = 88%]
Pressure (altimeter): 30.45 inches Hg (1031.2 mb)
Winds: calm
Visibility: 0.75 miles (1.21 km)
Ceiling: at least 12,000 feet AGL
Clouds: scattered clouds at 200 feet AGL
Weather: BR  (mist)

METAR text: KAUS 040926Z 00000KT 3/4SM R36R/1400V2200FT BR SCT002 01/M01 A3045 RMK AO2 T00111006
Conditions at: KAUS (AUSTIN , TX, US) observed 0926 UTC 04 February 2023
Temperature: 1.1°C (34°F)
Dewpoint: -0.6°C (31°F) [RH = 88%]
Pressure (altimeter): 30.45 inches Hg (1031.2 mb)
Winds: calm
Visibility: 0.75 miles (1.21 km)
Ceiling: at least 12,000 feet AGL
Clouds: scattered clouds at 200 feet AGL
Weather: BR  (mist)

METAR text: KAUS 040853Z 00000KT 3/4SM R36R/1400VP6000FT BR SCT002 01/M01 A3046 RMK AO2 SLP320 T00111006 58012
Conditions at: KAUS (AUSTIN , TX, US) observed 0853 UTC 04 February 2023
Temperature: 1.1°C (34°F)
Dewpoint: -0.6°C (31°F) [RH = 88%]
Pressure (altimeter): 30.46 inches Hg (1031.6 mb)
[Sea-level pressure: 1032.0 mb]
Winds: calm
Visibility: 0.75 miles (1.21 km)
Ceiling: at least 12,000 feet AGL
Clouds: scattered clouds at 200 feet AGL
Weather: BR  (mist)

Forecast for: KAUS (AUSTIN , TX, US)
Text: KAUS 040846Z 0409/0512 VRB02KT 1SM BR SCT003
Forecast period: 0900 to 1100 UTC 04 February 2023
Forecast type: FROM: standard forecast or significant change
Winds: variable direction winds at 2 MPH (2 knots; 1.0 m/s)
Visibility: 1.00 miles (1.61 km)
Ceiling: at least 12,000 feet AGL
Clouds: scattered clouds at 300 feet AGL
Weather: BR  (mist)
Text: FM041100 VRB02KT 1/2SM FG BKN002
Forecast period: 1100 to 1600 UTC 04 February 2023
Forecast type: FROM: standard forecast or significant change
Winds: variable direction winds at 2 MPH (2 knots; 1.0 m/s)
Visibility: 0.50 miles (0.80 km)
Ceiling: 200 feet AGL
Clouds: broken clouds at 200 feet AGL
Weather: FG  (fog)
Text: FM041600 18006KT 3SM BR BKN010
Forecast period: 1600 to 1800 UTC 04 February 2023
Forecast type: FROM: standard forecast or significant change
Winds: from the S (180 degrees) at 7 MPH (6 knots; 3.1 m/s)
Visibility: 3 miles (5 km)
Ceiling: 1000 feet AGL
Clouds: broken clouds at 1000 feet AGL
Weather: BR  (mist)
Text: FM041800 18011KT P6SM BKN040
Forecast period: 1800 UTC 04 February 2023 to 1200 UTC 05 February 2023
Forecast type: FROM: standard forecast or significant change
Winds: from the S (180 degrees) at 13 MPH (11 knots; 5.7 m/s)
Visibility: 6 or more miles (10+ km)
Ceiling: 4000 feet AGL
Clouds: broken clouds at 4000 feet AGL
Weather: no significant weather forecast for this period

 

AIRPORT MAP

 

RUNWAY INFORMATION

Runway 17L Runway length 9000 ft Runway width 150 ft
Runway elevation 492 ft Runway displaced threshold 0 ft Runway heading 179
Runway 35R Runway length 9000 ft Runway width 150 ft
Runway elevation 474 ft Runway displaced threshold 0 ft Runway heading 359
Runway 17R Runway length 12248 ft Runway width 150 ft
Runway elevation 542 ft Runway displaced threshold 0 ft Runway heading 179
Runway 35L Runway length 12248 ft Runway width 150 ft
Runway elevation 488 ft Runway displaced threshold 0 ft Runway heading 359

 

AIRPORT FREQUENCIES

Type A/D Name APP/DEP Frequency 118.8 MHZ
Type ASOS Name ASOS Frequency 128.875 MHZ
Type ATIS Name ATIS Frequency 124.4 MHZ
Type CLD Name CLNC DEL Frequency 125.5 MHZ
Type GND Name GND Frequency 121.7 MHZ
Type OPS Name ARNG OPS Frequency 36.8 MHZ
Type RDO Name SAN ANGELO Frequency 122.55 MHZ
Type TWR Name TWR Frequency 121 MHZ
Type UNIC Name UNICOM Frequency 122.95 MHZ

 

AIRPORT NEAR NAVIGATION AIDS

Type NDB Name Birdy Frequency 232 KHZ